Time;durP1;ratioP1;P1;durP2;ratioP2;P2;SDS_P1;SDS_P2;PMS_P1;PMS_P2;Temp;Humidity;BMP_temperature;BMP_pressure;BME280_temperature;BME280_humidity;BME280_pressure;Samples;Min_cycle;Max_cycle;Signal;HPM_P1;HPM_P2
2021/06/09 00:01:00;;;;;;;21.42;19.73;;;15.50;85.40;;;;;;5217466;28;20741;-71
2021/06/09 00:03:33;;;;;;;21.17;19.58;;;15.50;85.40;;;;;;5216679;28;20130;-73
2021/06/09 00:06:05;;;;;;;21.08;19.38;;;15.50;85.30;;;;;;5217860;28;20087;-72
2021/06/09 00:08:37;;;;;;;21.90;20.05;;;15.50;85.30;;;;;;5216549;28;20048;-72
2021/06/09 00:11:09;;;;;;;20.42;18.90;;;15.50;85.00;;;;;;5214866;28;20459;-71
2021/06/09 00:13:41;;;;;;;21.10;19.42;;;15.50;85.00;;;;;;5217151;28;20049;-73
2021/06/09 00:16:16;;;;;;;21.92;20.30;;;15.40;85.10;;;;;;5215867;28;21639;-73
2021/06/09 00:18:48;;;;;;;21.48;19.73;;;15.40;85.10;;;;;;5216458;28;20127;-71
2021/06/09 00:21:20;;;;;;;20.92;19.13;;;15.40;85.00;;;;;;5213954;28;20068;-72
2021/06/09 00:23:52;;;;;;;20.90;19.23;;;15.30;84.90;;;;;;5216979;28;20124;-72
2021/06/09 00:26:24;;;;;;;21.45;19.65;;;15.30;84.90;;;;;;5215002;28;20154;-73
2021/06/09 00:28:57;;;;;;;21.40;19.73;;;15.30;84.80;;;;;;5215994;28;20083;-72
2021/06/09 00:31:29;;;;;;;20.80;19.13;;;15.30;84.70;;;;;;5215078;28;20044;-72
2021/06/09 00:34:01;;;;;;;21.38;19.60;;;15.30;84.70;;;;;;5215659;28;20056;-72
2021/06/09 00:36:33;;;;;;;21.88;20.08;;;15.30;85.40;;;;;;5182569;28;20051;-73
2021/06/09 00:39:06;;;;;;;20.85;19.13;;;15.30;84.50;;;;;;5217090;28;20453;-73
2021/06/09 00:41:38;;;;;;;21.10;19.40;;;15.20;84.60;;;;;;5215131;28;20091;-72
2021/06/09 00:44:11;;;;;;;20.80;19.20;;;15.20;84.50;;;;;;5213348;28;20065;-72
2021/06/09 00:46:43;;;;;;;20.45;18.85;;;15.20;84.80;;;;;;5213517;28;20037;-72
2021/06/09 00:49:15;;;;;;;20.70;19.02;;;15.10;84.60;;;;;;5198017;28;20094;-73
2021/06/09 00:51:47;;;;;;;20.23;18.73;;;15.10;85.20;;;;;;5213953;28;20049;-73
2021/06/09 00:54:19;;;;;;;20.35;18.75;;;15.00;85.20;;;;;;5192639;28;20033;-73
2021/06/09 00:56:52;;;;;;;20.45;18.85;;;15.00;85.20;;;;;;5213902;28;20047;-72
2021/06/09 00:59:24;;;;;;;20.73;19.13;;;15.00;85.00;;;;;;5215566;28;20574;-72
2021/06/09 01:01:56;;;;;;;20.90;19.30;;;15.00;85.10;;;;;;5214955;28;20041;-72
2021/06/09 01:04:28;;;;;;;20.30;18.70;;;15.00;85.10;;;;;;5217378;28;20037;-72
2021/06/09 01:07:01;;;;;;;21.23;19.52;;;15.10;85.80;;;;;;5215420;28;20481;-71
2021/06/09 01:09:33;;;;;;;20.67;19.08;;;15.00;85.80;;;;;;5217703;28;20788;-73
2021/06/09 01:12:05;;;;;;;20.13;18.63;;;15.00;85.40;;;;;;5214776;28;20059;-72
2021/06/09 01:14:37;;;;;;;20.85;19.15;;;15.10;85.40;;;;;;5197771;28;20130;-72
2021/06/09 01:17:09;;;;;;;21.30;19.70;;;15.00;85.40;;;;;;5215711;28;20150;-72
2021/06/09 01:19:41;;;;;;;21.23;19.52;;;15.10;85.70;;;;;;5215737;28;20047;-71
2021/06/09 01:22:13;;;;;;;21.42;19.73;;;15.00;85.60;;;;;;5213409;28;20053;-72
2021/06/09 01:24:45;;;;;;;22.17;20.48;;;15.00;85.40;;;;;;5214785;28;20037;-72
2021/06/09 01:27:23;;;;;;;21.83;20.15;;;15.10;85.50;;;;;;5215845;28;20124;-72
2021/06/09 01:29:55;;;;;;;21.90;20.30;;;15.00;85.30;;;;;;5216621;28;20025;-72
2021/06/09 01:32:27;;;;;;;21.60;19.83;;;15.10;85.50;;;;;;5211075;28;20045;-72
2021/06/09 01:35:00;;;;;;;21.55;19.83;;;15.10;86.00;;;;;;5217339;28;20087;-72
2021/06/09 01:37:32;;;;;;;23.67;21.42;;;15.10;85.40;;;;;;5214981;28;20114;-73
2021/06/09 01:40:08;;;;;;;22.60;20.52;;;15.10;85.50;;;;;;5215175;28;20068;-73
2021/06/09 01:42:41;;;;;;;22.80;20.98;;;15.10;85.00;;;;;;5214084;28;20092;-72
2021/06/09 01:45:17;;;;;;;23.00;21.10;;;15.00;85.00;;;;;;5214942;28;20091;-72
2021/06/09 01:47:51;;;;;;;23.08;21.08;;;14.90;84.60;;;;;;5217768;28;20045;-73
2021/06/09 01:50:24;;;;;;;21.77;20.17;;;14.90;84.50;;;;;;5214476;28;20504;-73
2021/06/09 01:52:57;;;;;;;22.67;20.85;;;14.80;84.60;;;;;;5212186;28;20049;-72
2021/06/09 01:55:34;;;;;;;22.73;20.83;;;14.80;84.60;;;;;;5199221;28;20045;-71
2021/06/09 01:58:07;;;;;;;22.10;20.38;;;14.80;84.80;;;;;;5218168;28;20077;-72
2021/06/09 02:00:43;;;;;;;22.40;20.63;;;14.70;85.00;;;;;;5199681;28;20119;-71
2021/06/09 02:03:16;;;;;;;22.45;20.63;;;14.70;85.00;;;;;;5201265;28;20056;-71
2021/06/09 02:05:48;;;;;;;22.15;20.45;;;14.70;85.00;;;;;;5219740;28;20568;-71
2021/06/09 02:08:20;;;;;;;21.23;19.40;;;14.70;85.10;;;;;;5220102;28;20037;-73
2021/06/09 02:10:52;;;;;;;21.65;19.95;;;14.70;85.30;;;;;;5218827;28;20127;-73
2021/06/09 02:13:26;;;;;;;21.20;19.52;;;14.70;85.00;;;;;;5218670;28;20044;-72
2021/06/09 02:16:00;;;;;;;21.60;19.90;;;14.80;85.60;;;;;;5218255;28;20529;-73
2021/06/09 02:18:35;;;;;;;22.42;20.52;;;14.80;85.00;;;;;;5217181;28;20060;-74
2021/06/09 02:21:08;;;;;;;22.20;20.40;;;14.80;84.80;;;;;;5217063;28;20193;-72
2021/06/09 02:23:45;;;;;;;23.00;21.13;;;14.80;84.80;;;;;;5218195;28;20041;-72
2021/06/09 02:26:18;;;;;;;22.13;20.40;;;14.80;84.70;;;;;;5199925;28;20053;-72
2021/06/09 02:28:50;;;;;;;21.27;19.67;;;14.80;84.70;;;;;;5219649;28;20546;-72
2021/06/09 02:31:22;;;;;;;21.88;20.08;;;14.80;84.80;;;;;;5215705;28;20068;-73
2021/06/09 02:33:55;;;;;;;21.42;19.83;;;14.70;85.10;;;;;;5218336;28;20041;-72
2021/06/09 02:36:27;;;;;;;22.02;20.33;;;14.70;85.40;;;;;;5220437;28;20049;-72
2021/06/09 02:39:00;;;;;;;22.65;20.90;;;14.70;85.30;;;;;;5217343;28;20103;-72
2021/06/09 02:41:32;;;;;;;22.00;20.10;;;14.60;85.30;;;;;;5219090;28;20101;-74
2021/06/09 02:44:05;;;;;;;22.40;20.70;;;14.60;85.50;;;;;;5218100;28;20068;-73
2021/06/09 02:46:59;;;;;;;22.05;20.23;;;14.60;85.60;;;;;;5220169;28;20044;-72
2021/06/09 02:49:35;;;;;;;21.58;19.98;;;14.60;85.40;;;;;;5219875;28;20119;-71
2021/06/09 02:52:32;;;;;;;22.23;20.52;;;14.60;85.50;;;;;;5213367;28;20072;-72
2021/06/09 02:55:25;;;;;;;22.45;20.75;;;14.60;85.70;;;;;;5203121;28;20036;-73
2021/06/09 02:58:02;;;;;;;22.50;20.80;;;14.50;85.50;;;;;;5216278;28;20045;-72
2021/06/09 03:00:57;;;;;;;22.73;20.80;;;14.50;85.50;;;;;;5218702;28;20044;-72
2021/06/09 03:03:44;;;;;;;22.55;20.55;;;14.50;85.50;;;;;;5217871;28;20041;-72
2021/06/09 03:06:32;;;;;;;21.20;19.50;;;14.40;85.40;;;;;;5217533;28;20685;-72
2021/06/09 03:09:07;;;;;;;21.23;19.45;;;14.40;85.90;;;;;;5196205;28;20122;-73
2021/06/09 03:11:56;;;;;;;21.90;19.77;;;14.40;85.80;;;;;;5197731;28;20064;-72
2021/06/09 03:17:33;;;;;;;21.23;19.42;;;14.50;85.70;;;;;;5190819;28;20107;-72
2021/06/09 03:20:40;;;;;;;20.75;19.23;;;14.40;85.50;;;;;;5217121;28;20130;-73
2021/06/09 03:23:40;;;;;;;21.08;19.58;;;14.50;85.70;;;;;;5200425;28;20441;-72
2021/06/09 03:26:38;;;;;;;20.98;19.27;;;14.50;85.90;;;;;;5193609;28;20048;-72
2021/06/09 03:29:28;;;;;;;21.35;19.40;;;14.50;85.50;;;;;;5217430;28;20122;-72
2021/06/09 03:32:04;;;;;;;;;;;14.50;85.40;;;;;;5217330;28;20055;-73
2021/06/09 03:35:20;;;;;;;22.15;20.38;;;14.50;85.40;;;;;;5201301;28;19925;-74
2021/06/09 03:37:56;;;;;;;21.85;20.15;;;14.50;85.70;;;;;;5203970;28;20056;-73
2021/06/09 03:40:36;;;;;;;21.48;19.88;;;14.50;85.80;;;;;;5218781;28;20127;-73
2021/06/09 03:43:10;;;;;;;21.45;19.85;;;14.50;86.20;;;;;;5216600;28;20041;-73
2021/06/09 03:45:46;;;;;;;20.80;19.20;;;14.50;86.30;;;;;;5216888;28;20095;-73
2021/06/09 03:48:21;;;;;;;20.58;19.05;;;14.50;86.20;;;;;;5217640;28;20065;-73
2021/06/09 03:50:55;;;;;;;21.55;19.85;;;14.50;85.90;;;;;;5217449;28;20106;-73
2021/06/09 03:53:28;;;;;;;21.17;19.58;;;14.50;86.10;;;;;;5216436;28;20072;-73
2021/06/09 03:56:04;;;;;;;21.25;19.40;;;14.60;85.70;;;;;;5217959;28;20045;-73
2021/06/09 03:58:38;;;;;;;21.00;19.30;;;14.50;86.50;;;;;;5198338;28;20065;-73
2021/06/09 04:01:12;;;;;;;19.83;18.40;;;14.60;85.80;;;;;;5216658;28;20462;-74
2021/06/09 04:03:46;;;;;;;20.27;18.60;;;14.50;86.70;;;;;;5215777;28;20112;-73
2021/06/09 04:06:19;;;;;;;21.40;19.80;;;14.60;86.30;;;;;;5215082;28;20579;-73
2021/06/09 04:08:53;;;;;;;20.73;19.20;;;14.50;86.30;;;;;;5217067;28;20073;-74
2021/06/09 04:11:26;;;;;;;19.77;18.38;;;14.60;87.10;;;;;;5215926;28;20103;-73
2021/06/09 04:14:00;;;;;;;20.70;18.95;;;14.50;86.70;;;;;;5216737;28;20041;-72
2021/06/09 04:16:36;;;;;;;19.85;18.45;;;14.50;87.30;;;;;;5214173;28;20566;-73
2021/06/09 04:19:10;;;;;;;20.52;18.92;;;14.50;87.60;;;;;;5217848;28;20052;-73
2021/06/09 04:21:42;;;;;;;20.33;18.63;;;14.50;87.10;;;;;;5217217;28;20064;-72
2021/06/09 04:24:14;;;;;;;20.40;18.90;;;14.60;86.80;;;;;;5215422;28;20159;-72
2021/06/09 04:26:48;;;;;;;20.77;19.23;;;14.60;86.50;;;;;;5198537;28;20047;-73
2021/06/09 04:29:21;;;;;;;19.80;18.30;;;14.60;87.20;;;;;;5215009;28;20094;-73
2021/06/09 04:31:53;;;;;;;20.65;19.05;;;14.70;87.10;;;;;;5214588;28;20037;-72
2021/06/09 04:34:25;;;;;;;20.58;18.90;;;14.70;86.90;;;;;;5196001;28;20052;-73
2021/06/09 04:36:57;;;;;;;19.65;18.08;;;14.80;87.40;;;;;;5215269;28;20064;-72
2021/06/09 04:39:29;;;;;;;19.90;18.50;;;14.80;87.30;;;;;;5218506;28;20066;-73
2021/06/09 04:42:01;;;;;;;19.83;18.33;;;14.80;87.20;;;;;;5216239;28;20670;-75
2021/06/09 04:44:34;;;;;;;20.05;18.50;;;14.80;87.00;;;;;;5182513;28;20075;-74
2021/06/09 04:47:07;;;;;;;20.30;18.80;;;14.80;87.00;;;;;;5211844;28;20107;-73
2021/06/09 04:49:42;;;;;;;19.95;18.35;;;14.90;87.40;;;;;;5216005;28;20041;-72
2021/06/09 04:52:14;;;;;;;19.90;18.17;;;14.90;87.20;;;;;;5187586;28;20060;-72
2021/06/09 04:54:46;;;;;;;20.30;18.63;;;14.90;87.20;;;;;;5216841;28;20068;-73
2021/06/09 04:57:18;;;;;;;20.73;18.73;;;15.00;87.00;;;;;;5213762;28;20037;-72
2021/06/09 04:59:50;;;;;;;19.55;18.13;;;15.00;86.90;;;;;;5217211;28;20637;-72
2021/06/09 05:02:22;;;;;;;20.17;18.40;;;15.10;86.80;;;;;;5213606;28;20953;-72
2021/06/09 05:04:54;;;;;;;19.55;17.95;;;15.10;86.80;;;;;;5216761;28;20048;-72
2021/06/09 05:07:26;;;;;;;19.08;17.67;;;15.10;86.80;;;;;;5212441;28;20048;-72
2021/06/09 05:09:59;;;;;;;19.40;17.88;;;15.20;86.70;;;;;;5214971;28;20033;-72
2021/06/09 05:12:38;;;;;;;19.23;17.83;;;15.20;86.90;;;;;;5212103;28;20106;-73
2021/06/09 05:15:12;;;;;;;19.35;17.80;;;15.20;86.80;;;;;;5213500;28;20656;-73
2021/06/09 05:17:48;;;;;;;20.00;18.50;;;15.30;86.70;;;;;;5213994;28;20147;-70
2021/06/09 05:20:36;;;;;;;20.17;18.50;;;15.30;86.30;;;;;;5214200;28;20045;-72
2021/06/09 05:23:14;;;;;;;20.65;18.95;;;15.40;86.00;;;;;;5215597;28;20072;-72
2021/06/09 05:25:50;;;;;;;20.35;18.58;;;15.40;85.70;;;;;;5212731;28;20120;-73
2021/06/09 05:28:25;;;;;;;20.15;18.65;;;15.50;85.80;;;;;;5212001;28;20551;-72
2021/06/09 05:30:59;;;;;;;20.58;18.98;;;15.60;85.90;;;;;;5214677;28;20443;-72
2021/06/09 05:33:32;;;;;;;20.77;19.15;;;15.70;85.90;;;;;;5217317;28;20044;-72
2021/06/09 05:36:05;;;;;;;20.10;18.60;;;15.70;85.70;;;;;;5218390;28;20046;-73
2021/06/09 05:38:37;;;;;;;20.30;18.80;;;15.70;85.40;;;;;;5217604;28;20064;-72
2021/06/09 05:41:10;;;;;;;20.13;18.73;;;15.80;85.50;;;;;;5217727;28;20504;-71
2021/06/09 05:43:42;;;;;;;21.25;19.55;;;15.80;85.60;;;;;;5216918;28;20551;-74
2021/06/09 05:46:13;;;;;;;20.65;19.05;;;15.90;86.00;;;;;;5215992;28;20048;-75
2021/06/09 05:48:48;;;;;;;20.25;18.75;;;16.00;85.80;;;;;;5218391;28;20676;-76
2021/06/09 05:51:23;;;;;;;20.45;18.85;;;16.00;85.70;;;;;;5218846;28;20067;-75
2021/06/09 05:53:55;;;;;;;20.48;18.88;;;16.10;85.30;;;;;;5220856;28;20096;-75
2021/06/09 05:56:30;;;;;;;20.35;18.75;;;16.20;84.80;;;;;;5202021;28;20464;-75
2021/06/09 05:59:02;;;;;;;21.02;19.42;;;16.30;83.80;;;;;;5220497;28;20135;-75
2021/06/09 06:01:34;;;;;;;20.65;19.15;;;16.50;84.10;;;;;;5217819;28;20041;-75
2021/06/09 06:04:08;;;;;;;20.98;19.48;;;16.60;82.30;;;;;;5199782;28;20159;-75
2021/06/09 06:06:40;;;;;;;20.52;18.92;;;16.70;82.10;;;;;;5218938;28;20166;-75
2021/06/09 06:09:13;;;;;;;19.85;18.45;;;17.00;83.00;;;;;;5220528;28;20045;-75
2021/06/09 06:11:47;;;;;;;20.73;19.23;;;17.20;82.50;;;;;;5218653;28;20156;-75
2021/06/09 06:14:25;;;;;;;20.52;19.02;;;17.40;81.20;;;;;;5219490;28;20061;-75
2021/06/09 06:16:57;;;;;;;21.27;19.52;;;17.50;79.30;;;;;;5218256;28;20136;-75
2021/06/09 06:19:34;;;;;;;20.80;19.27;;;17.70;80.00;;;;;;5202453;28;20059;-75
2021/06/09 06:22:10;;;;;;;20.48;18.98;;;17.80;77.80;;;;;;5218926;28;20053;-74
2021/06/09 06:24:51;;;;;;;20.92;19.42;;;17.90;77.00;;;;;;5218573;28;20117;-75
2021/06/09 06:27:25;;;;;;;21.85;20.15;;;18.10;77.80;;;;;;5192947;28;20133;-75
2021/06/09 06:29:58;;;;;;;21.38;19.77;;;18.20;77.50;;;;;;5219305;28;20917;-75
2021/06/09 06:32:30;;;;;;;21.92;20.33;;;18.20;76.70;;;;;;5219137;28;20519;-75
2021/06/09 06:35:03;;;;;;;21.20;19.60;;;18.20;78.20;;;;;;5201334;28;20110;-75
2021/06/09 06:37:35;;;;;;;21.50;19.88;;;18.30;77.80;;;;;;5219807;28;20144;-75
2021/06/09 06:40:08;;;;;;;22.15;20.55;;;18.50;76.00;;;;;;5219727;28;20044;-74
2021/06/09 06:42:41;;;;;;;21.45;19.85;;;18.60;75.20;;;;;;5218107;28;20090;-73
2021/06/09 06:45:13;;;;;;;21.23;19.60;;;18.80;74.30;;;;;;5218093;28;20044;-75
2021/06/09 06:47:45;;;;;;;20.48;18.98;;;18.90;74.20;;;;;;5181927;28;20037;-74
2021/06/09 06:50:20;;;;;;;20.65;19.05;;;19.00;73.50;;;;;;5214669;28;20034;-75
2021/06/09 06:52:52;;;;;;;21.10;19.55;;;19.10;76.30;;;;;;5213916;28;20037;-75
2021/06/09 06:55:24;;;;;;;20.67;19.08;;;19.20;75.10;;;;;;5192710;28;20110;-74
2021/06/09 06:57:57;;;;;;;21.23;19.70;;;19.30;75.50;;;;;;5219194;28;20680;-76
2021/06/09 07:00:31;;;;;;;21.52;19.80;;;19.30;74.70;;;;;;5199529;28;20124;-76
2021/06/09 07:03:07;;;;;;;21.00;19.40;;;19.40;73.70;;;;;;5218573;28;20045;-75
2021/06/09 07:05:40;;;;;;;20.77;19.23;;;19.50;73.70;;;;;;5194550;28;20041;-76
2021/06/09 07:08:12;;;;;;;20.60;19.13;;;19.50;72.90;;;;;;5200807;28;20148;-75
2021/06/09 07:10:44;;;;;;;21.00;19.50;;;19.60;72.40;;;;;;5219547;28;20048;-76
2021/06/09 07:13:16;;;;;;;20.92;19.40;;;19.60;71.40;;;;;;5217652;28;20043;-76
2021/06/09 07:15:53;;;;;;;22.23;20.60;;;19.70;71.20;;;;;;5218706;28;20103;-75
2021/06/09 07:18:31;;;;;;;22.60;20.75;;;19.70;72.70;;;;;;5218887;28;20119;-76
2021/06/09 07:21:06;;;;;;;21.92;20.23;;;19.90;73.30;;;;;;5199494;28;20077;-75
2021/06/09 07:23:38;;;;;;;21.10;19.50;;;19.80;72.50;;;;;;5218891;28;20051;-76
2021/06/09 07:26:11;;;;;;;21.70;20.10;;;19.80;72.60;;;;;;5218492;28;20114;-75
2021/06/09 07:28:49;;;;;;;21.35;19.65;;;19.90;73.10;;;;;;5219232;28;20649;-75
2021/06/09 07:31:36;;;;;;;20.90;19.40;;;20.00;71.20;;;;;;5216613;28;20072;-76
2021/06/09 07:34:09;;;;;;;21.70;20.13;;;20.20;72.80;;;;;;5176337;28;20078;-75
2021/06/09 07:37:09;;;;;;;22.05;20.35;;;20.40;71.70;;;;;;5214391;28;20056;-75
2021/06/09 07:39:46;;;;;;;22.02;20.42;;;20.50;71.00;;;;;;5197383;28;20508;-74
2021/06/09 07:42:19;;;;;;;22.00;20.40;;;20.60;69.90;;;;;;5193376;28;20048;-75
2021/06/09 07:44:59;;;;;;;22.08;20.27;;;20.70;70.70;;;;;;5201978;28;20090;-75
2021/06/09 07:47:34;;;;;;;22.33;20.60;;;20.60;69.10;;;;;;5196767;28;20503;-75
2021/06/09 07:50:08;;;;;;;21.10;19.60;;;20.50;68.60;;;;;;5195535;28;20639;-76
2021/06/09 07:52:44;;;;;;;23.48;21.67;;;20.60;69.50;;;;;;5178112;28;20200;-76
2021/06/09 07:55:17;;;;;;;21.38;19.77;;;20.70;68.50;;;;;;5178586;28;20102;-76
2021/06/09 07:57:51;;;;;;;22.20;20.65;;;20.80;68.50;;;;;;5218608;28;20461;-75
2021/06/09 08:00:24;;;;;;;21.88;20.20;;;21.00;67.50;;;;;;5217951;28;20403;-76
2021/06/09 08:02:57;;;;;;;22.38;20.77;;;21.10;71.30;;;;;;5216702;28;20048;-75
2021/06/09 08:05:29;;;;;;;22.00;20.40;;;21.20;67.90;;;;;;5217930;28;20110;-75
2021/06/09 08:08:01;;;;;;;23.00;21.30;;;21.20;70.90;;;;;;5200618;28;20044;-76
2021/06/09 08:10:46;;;;;;;22.83;20.88;;;21.20;67.70;;;;;;5218292;28;20048;-74
2021/06/09 08:13:18;;;;;;;22.85;21.15;;;21.30;70.20;;;;;;5218477;28;20133;-75
2021/06/09 08:15:52;;;;;;;23.40;21.45;;;21.50;70.30;;;;;;5192682;28;20123;-75
2021/06/09 08:18:24;;;;;;;22.35;20.75;;;21.40;66.50;;;;;;5218800;28;20048;-76
2021/06/09 08:21:16;;;;;;;23.65;21.77;;;21.50;70.10;;;;;;5217755;28;20111;-74
2021/06/09 08:23:50;;;;;;;22.90;21.20;;;21.60;70.60;;;;;;5218792;28;20068;-74
2021/06/09 08:26:24;;;;;;;23.48;21.67;;;21.70;66.90;;;;;;5200725;28;20048;-76
2021/06/09 08:28:57;;;;;;;23.45;21.75;;;21.70;68.80;;;;;;5219465;28;20041;-76
2021/06/09 08:31:31;;;;;;;22.45;20.75;;;21.80;67.20;;;;;;5199528;28;20743;-76
2021/06/09 08:34:06;;;;;;;22.95;21.25;;;21.80;67.70;;;;;;5218903;28;20110;-77
2021/06/09 08:36:43;;;;;;;23.17;21.48;;;21.80;68.80;;;;;;5218140;28;20037;-76
2021/06/09 08:39:15;;;;;;;22.52;20.92;;;21.70;69.60;;;;;;5218296;28;20834;-76
2021/06/09 08:41:48;;;;;;;21.58;19.98;;;21.70;67.10;;;;;;5217401;28;20049;-75
2021/06/09 08:44:22;;;;;;;23.02;21.33;;;21.60;70.20;;;;;;5219141;28;20076;-76
2021/06/09 08:46:57;;;;;;;22.75;21.15;;;21.60;69.30;;;;;;5192172;28;20045;-76
2021/06/09 08:49:29;;;;;;;22.70;21.00;;;21.50;69.90;;;;;;5218563;28;20041;-76
2021/06/09 08:52:03;;;;;;;22.40;20.80;;;21.50;70.90;;;;;;5217315;28;20037;-76
2021/06/09 08:54:37;;;;;;;23.48;21.77;;;21.50;69.60;;;;;;5217997;28;20069;-76
2021/06/09 08:57:10;;;;;;;23.83;22.02;;;21.50;70.10;;;;;;5200063;28;20053;-74
2021/06/09 08:59:44;;;;;;;22.95;21.23;;;21.50;70.20;;;;;;5218255;28;20045;-75
2021/06/09 09:02:16;;;;;;;23.35;21.55;;;21.40;69.00;;;;;;5216855;28;20136;-75
2021/06/09 09:04:48;;;;;;;23.38;21.42;;;21.40;71.30;;;;;;5218938;28;20077;-76
2021/06/09 09:07:24;;;;;;;22.23;20.40;;;21.30;69.40;;;;;;5198396;28;20041;-76
2021/06/09 09:09:57;;;;;;;22.80;21.10;;;21.30;70.80;;;;;;5192501;28;20037;-74
2021/06/09 09:12:30;;;;;;;23.23;21.42;;;21.30;69.50;;;;;;5199108;28;20068;-76
2021/06/09 09:15:04;;;;;;;23.92;22.02;;;21.20;71.40;;;;;;5218269;28;20106;-75
2021/06/09 09:17:50;;;;;;;24.05;22.23;;;21.20;70.00;;;;;;5195822;28;20119;-75
2021/06/09 09:20:29;;;;;;;23.95;22.15;;;21.10;70.70;;;;;;5218247;28;20056;-75
2021/06/09 09:23:16;;;;;;;23.85;22.02;;;21.00;71.20;;;;;;5216549;28;20077;-75
2021/06/09 09:25:54;;;;;;;24.38;22.48;;;21.10;70.40;;;;;;5217860;28;21233;-75
2021/06/09 09:28:33;;;;;;;23.08;21.27;;;21.00;69.10;;;;;;5217579;28;20064;-75
2021/06/09 09:31:08;;;;;;;24.70;22.80;;;20.90;70.10;;;;;;5216140;28;20061;-74
2021/06/09 09:33:41;;;;;;;23.77;21.90;;;20.90;69.60;;;;;;5216978;28;20047;-75
2021/06/09 09:36:30;;;;;;;24.27;22.48;;;20.80;70.80;;;;;;5216983;28;20059;-75
2021/06/09 09:39:20;;;;;;;23.83;22.02;;;20.90;70.90;;;;;;5217880;28;20055;-76
2021/06/09 09:41:52;;;;;;;23.35;21.55;;;20.90;69.40;;;;;;5215816;28;20044;-75
2021/06/09 09:44:24;;;;;;;24.02;22.13;;;20.90;70.30;;;;;;5200910;28;20052;-74
2021/06/09 09:46:56;;;;;;;24.00;22.20;;;21.00;70.30;;;;;;5176272;28;20044;-76
2021/06/09 09:49:30;;;;;;;23.02;21.30;;;21.10;69.40;;;;;;5218437;28;20056;-76
2021/06/09 09:52:03;;;;;;;23.33;21.35;;;21.10;69.30;;;;;;5195009;28;20068;-76
2021/06/09 09:54:36;;;;;;;23.50;21.60;;;21.20;70.40;;;;;;5198494;28;20126;-76
2021/06/09 09:57:12;;;;;;;23.67;21.88;;;21.30;69.70;;;;;;5217101;28;20118;-76
2021/06/09 09:59:54;;;;;;;23.52;21.73;;;21.30;68.20;;;;;;5216454;28;20427;-75
2021/06/09 10:02:26;;;;;;;23.80;22.00;;;21.50;70.90;;;;;;5190376;28;20068;-75
2021/06/09 10:05:09;;;;;;;24.27;22.45;;;21.50;69.30;;;;;;5200405;28;20064;-76
2021/06/09 10:08:02;;;;;;;23.58;21.80;;;21.70;66.70;;;;;;5198846;28;20041;-76
2021/06/09 10:10:36;;;;;;;24.50;22.60;;;21.90;67.80;;;;;;5217692;28;20116;-75
2021/06/09 10:13:15;;;;;;;24.88;22.98;;;22.10;67.70;;;;;;5217803;28;20051;-75
2021/06/09 10:15:47;;;;;;;25.00;23.10;;;22.10;66.80;;;;;;5217133;28;20041;-76
2021/06/09 10:18:25;;;;;;;24.80;22.90;;;22.20;67.40;;;;;;5219361;28;20111;-76
2021/06/09 10:20:57;;;;;;;24.45;22.45;;;22.30;67.40;;;;;;5219726;28;20443;-76
2021/06/09 10:23:37;;;;;;;23.52;21.73;;;22.30;67.30;;;;;;5220245;28;20037;-76
2021/06/09 10:26:12;;;;;;;24.42;22.52;;;22.20;67.00;;;;;;5221314;28;20581;-74
2021/06/09 10:29:01;;;;;;;25.40;23.50;;;22.10;66.00;;;;;;5203776;28;20103;-74
2021/06/09 10:31:42;;;;;;;26.67;24.50;;;22.10;66.60;;;;;;5219123;28;20103;-74
2021/06/09 10:34:14;;;;;;;27.30;25.23;;;22.00;67.50;;;;;;5221676;28;20193;-75
2021/06/09 10:36:49;;;;;;;25.88;23.85;;;22.10;67.30;;;;;;5219866;28;20041;-74
2021/06/09 10:39:24;;;;;;;26.30;24.20;;;22.10;67.10;;;;;;5221382;28;20057;-75
2021/06/09 10:41:58;;;;;;;26.15;24.05;;;22.10;65.50;;;;;;5219906;28;20044;-74
2021/06/09 10:44:35;;;;;;;25.60;23.50;;;22.20;63.90;;;;;;5220765;28;20128;-76
2021/06/09 10:47:18;;;;;;;26.38;24.25;;;22.20;66.80;;;;;;5219842;28;20452;-75
2021/06/09 10:49:52;;;;;;;25.05;23.15;;;22.40;67.80;;;;;;5220372;28;20040;-75
2021/06/09 10:52:24;;;;;;;24.80;22.98;;;22.40;65.60;;;;;;5219616;28;20570;-75
2021/06/09 10:54:56;;;;;;;24.88;22.75;;;22.60;65.10;;;;;;5219019;28;20085;-75
2021/06/09 10:57:28;;;;;;;24.77;22.95;;;22.70;65.90;;;;;;5220721;28;20099;-75
2021/06/09 11:00:00;;;;;;;26.00;23.90;;;22.90;64.50;;;;;;5221087;28;20467;-75
2021/06/09 11:02:32;;;;;;;24.98;23.08;;;23.00;61.90;;;;;;5218802;28;20086;-75
2021/06/09 11:05:07;;;;;;;24.60;22.80;;;23.10;61.00;;;;;;5221368;28;20531;-76
2021/06/09 11:07:50;;;;;;;25.52;23.45;;;23.10;61.70;;;;;;5219759;28;20056;-73
2021/06/09 11:10:35;;;;;;;25.45;23.45;;;23.30;64.20;;;;;;5220213;28;20045;-74
2021/06/09 11:13:09;;;;;;;26.58;24.45;;;23.40;61.60;;;;;;5219408;28;20044;-74
2021/06/09 11:15:41;;;;;;;26.95;24.85;;;23.50;62.40;;;;;;5220001;28;20095;-75
2021/06/09 11:18:15;;;;;;;26.13;24.13;;;23.50;63.30;;;;;;5220257;28;20243;-75
2021/06/09 11:20:49;;;;;;;26.45;24.55;;;23.50;59.70;;;;;;5219602;28;20758;-74
2021/06/09 11:23:29;;;;;;;25.88;23.95;;;23.60;61.70;;;;;;5201618;28;20103;-75
2021/06/09 11:26:03;;;;;;;25.70;23.70;;;23.70;62.40;;;;;;5186496;28;20459;-74
2021/06/09 11:28:39;;;;;;;25.27;23.38;;;23.80;60.00;;;;;;5218854;28;20386;-75
2021/06/09 11:31:28;;;;;;;24.80;23.00;;;23.80;60.30;;;;;;5195975;28;20044;-74
2021/06/09 11:34:03;;;;;;;26.08;23.98;;;24.00;60.20;;;;;;5209264;28;20052;-73
2021/06/09 11:36:41;;;;;;;24.30;22.50;;;23.90;58.50;;;;;;5214058;28;20041;-73
2021/06/09 11:39:19;;;;;;;25.42;23.52;;;24.00;59.40;;;;;;5217432;28;21007;-74
2021/06/09 11:41:53;;;;;;;24.98;23.08;;;24.10;59.50;;;;;;5215495;28;20044;-73
2021/06/09 11:44:26;;;;;;;24.90;23.00;;;24.20;59.10;;;;;;5213069;28;20045;-72
2021/06/09 11:47:28;;;;;;;25.30;23.40;;;24.30;58.60;;;;;;5214351;28;20516;-74
2021/06/09 11:50:30;;;;;;;25.08;23.17;;;24.30;58.10;;;;;;5216665;28;20139;-73
2021/06/09 11:53:13;;;;;;;25.67;23.70;;;24.50;57.90;;;;;;5217266;28;20059;-74
2021/06/09 11:56:05;;;;;;;25.00;23.17;;;24.60;59.50;;;;;;5207512;28;20124;-75
2021/06/09 11:58:37;;;;;;;25.20;23.30;;;24.60;56.80;;;;;;5214031;28;20155;-74
2021/06/09 12:01:12;;;;;;;24.98;23.17;;;24.70;56.70;;;;;;5215199;28;20053;-74
2021/06/09 12:03:45;;;;;;;25.60;23.50;;;24.70;56.80;;;;;;5200234;28;20048;-75
2021/06/09 12:06:21;;;;;;;23.83;22.13;;;24.70;54.40;;;;;;5216976;28;20128;-75
2021/06/09 12:08:55;;;;;;;24.60;22.77;;;24.60;52.30;;;;;;5218611;28;20114;-76
2021/06/09 12:11:35;;;;;;;25.33;23.23;;;24.70;57.50;;;;;;5215451;28;20045;-75
2021/06/09 12:14:14;;;;;;;25.40;23.50;;;24.80;56.70;;;;;;5215686;28;20123;-75
2021/06/09 12:16:47;;;;;;;25.35;23.45;;;24.90;55.90;;;;;;5213238;28;20103;-76
2021/06/09 12:19:44;;;;;;;25.65;23.65;;;25.10;58.00;;;;;;5217364;28;20190;-75
2021/06/09 12:22:22;;;;;;;25.02;23.23;;;25.20;55.90;;;;;;5196690;28;20772;-76
2021/06/09 12:25:04;;;;;;;24.60;22.67;;;25.20;55.10;;;;;;5211921;28;20454;-76
2021/06/09 12:27:39;;;;;;;24.73;22.73;;;25.30;54.20;;;;;;5214935;28;20118;-75
2021/06/09 12:30:19;;;;;;;25.77;23.88;;;25.40;52.80;;;;;;5213551;28;20590;-76
2021/06/09 12:32:52;;;;;;;24.38;22.58;;;25.40;54.10;;;;;;5208806;28;20583;-75
2021/06/09 12:35:24;;;;;;;25.02;23.13;;;25.40;50.00;;;;;;5214508;28;20123;-75
2021/06/09 12:37:59;;;;;;;24.65;22.85;;;25.40;49.50;;;;;;5214573;28;20053;-76
2021/06/09 12:40:34;;;;;;;24.33;22.52;;;25.50;48.60;;;;;;5216583;28;20045;-76
2021/06/09 12:43:09;;;;;;;25.50;23.60;;;25.50;48.80;;;;;;5188092;28;20139;-76
2021/06/09 12:45:44;;;;;;;25.27;23.27;;;25.60;48.10;;;;;;5216577;28;20045;-78
2021/06/09 12:48:19;;;;;;;25.45;23.45;;;25.70;50.70;;;;;;5194167;28;20064;-76
2021/06/09 12:51:01;;;;;;;25.30;23.30;;;25.70;51.90;;;;;;5214754;28;20118;-76
2021/06/09 12:53:34;;;;;;;25.55;23.65;;;25.90;51.90;;;;;;5214420;28;20091;-76
2021/06/09 12:56:07;;;;;;;25.27;23.38;;;25.90;51.50;;;;;;5215144;28;20571;-75
2021/06/09 12:58:39;;;;;;;25.80;23.88;;;26.00;51.10;;;;;;5214640;28;20041;-76
2021/06/09 13:01:12;;;;;;;25.48;23.58;;;26.00;51.20;;;;;;5210321;28;20966;-76
2021/06/09 13:03:48;;;;;;;26.08;24.17;;;26.00;51.60;;;;;;5214297;28;20072;-76
2021/06/09 13:06:22;;;;;;;26.08;24.08;;;26.20;52.00;;;;;;5210207;28;20524;-75
2021/06/09 13:08:58;;;;;;;25.42;23.45;;;26.20;49.40;;;;;;5197794;28;20098;-76
2021/06/09 13:11:32;;;;;;;25.65;23.75;;;26.40;53.10;;;;;;5211824;28;20056;-77
2021/06/09 13:14:06;;;;;;;27.15;25.05;;;26.50;52.60;;;;;;5214791;28;20049;-76